Time;durP1;ratioP1;P1;durP2;ratioP2;P2;SDS_P1;SDS_P2;PMS_P1;PMS_P2;Temp;Humidity;BMP_temperature;BMP_pressure;BME280_temperature;BME280_humidity;BME280_pressure;Samples;Min_cycle;Max_cycle;Signal;HPM_P1;HPM_P2
2023/02/23 00:01:35;;;;;;;15.90;7.95;;;;;;;;;;5029770;28;20030;-70
2023/02/23 00:04:01;;;;;;;13.63;7.45;;;;;;;;;;5029092;28;20562;-72
2023/02/23 00:06:27;;;;;;;13.07;7.10;;;;;;;;;;5018379;28;20544;-72
2023/02/23 00:08:53;;;;;;;14.73;8.38;;;;;;;;;;5029585;28;20033;-72
2023/02/23 00:11:19;;;;;;;12.98;7.20;;;;;;;;;;5029578;28;20083;-72
2023/02/23 00:13:45;;;;;;;14.95;8.20;;;;;;;;;;5029158;28;20061;-71
2023/02/23 00:16:15;;;;;;;15.60;7.70;;;;;;;;;;5029652;28;20043;-71
2023/02/23 00:18:47;;;;;;;15.73;8.75;;;;;;;;;;5036144;28;20037;-69
2023/02/23 00:21:33;;;;;;;13.15;7.40;;;;;;;;;;5027468;28;20025;-65
2023/02/23 00:24:03;;;;;;;18.70;8.20;;;;;;;;;;5011246;28;20117;-64
2023/02/23 00:26:30;;;;;;;18.00;8.52;;;;;;;;;;5028880;28;20030;-64
2023/02/23 00:28:56;;;;;;;12.18;6.95;;;;;;;;;;5025749;28;20053;-65
2023/02/23 00:31:24;;;;;;;16.42;9.10;;;;;;;;;;5026498;28;20082;-66
2023/02/23 00:33:52;;;;;;;16.45;8.35;;;;;;;;;;5027137;28;20045;-63
2023/02/23 00:36:17;;;;;;;14.75;8.20;;;;;;;;;;5026560;28;20116;-69
2023/02/23 00:38:44;;;;;;;14.15;7.85;;;;;;;;;;5028360;28;20117;-65
2023/02/23 00:41:11;;;;;;;14.68;8.07;;;;;;;;;;5027979;28;20649;-68
2023/02/23 00:43:38;;;;;;;18.30;8.15;;;;;;;;;;5028361;28;20091;-67
2023/02/23 00:46:04;;;;;;;13.88;7.65;;;;;;;;;;5027792;28;20080;-69
2023/02/23 00:48:30;;;;;;;15.20;7.88;;;;;;;;;;5029771;28;20029;-68
2023/02/23 00:50:59;;;;;;;17.10;8.48;;;;;;;;;;5032883;28;20063;-67
2023/02/23 00:53:26;;;;;;;16.17;9.93;;;;;;;;;;5027377;28;20806;-68
2023/02/23 00:55:51;;;;;;;15.63;8.75;;;;;;;;;;5026141;28;20399;-72
2023/02/23 00:58:16;;;;;;;14.68;8.75;;;;;;;;;;5037935;28;20056;-65
2023/02/23 01:00:42;;;;;;;15.83;8.50;;;;;;;;;;5029273;28;20033;-68
2023/02/23 01:03:07;;;;;;;14.75;8.88;;;;;;;;;;5027174;28;20109;-68
2023/02/23 01:05:35;;;;;;;15.60;8.10;;;;;;;;;;5027590;28;20405;-67
2023/02/23 01:08:00;;;;;;;16.17;9.73;;;;;;;;;;5027772;28;20320;-67
2023/02/23 01:10:26;;;;;;;14.10;8.13;;;;;;;;;;5017554;28;20064;-69
2023/02/23 01:12:52;;;;;;;18.02;9.55;;;;;;;;;;5027924;28;20339;-68
2023/02/23 01:15:18;;;;;;;16.13;8.00;;;;;;;;;;5027701;28;20060;-70
2023/02/23 01:17:43;;;;;;;13.98;8.30;;;;;;;;;;5028607;28;20733;-74
2023/02/23 01:20:15;;;;;;;14.57;8.23;;;;;;;;;;5028990;28;20029;-72
2023/02/23 01:22:42;;;;;;;20.88;8.13;;;;;;;;;;5035747;28;20116;-73
2023/02/23 01:25:07;;;;;;;16.80;9.55;;;;;;;;;;5027853;28;20141;-73
2023/02/23 01:27:34;;;;;;;17.23;8.98;;;;;;;;;;5026278;28;20036;-73
2023/02/23 01:29:59;;;;;;;15.73;10.32;;;;;;;;;;5027971;28;20029;-73
2023/02/23 01:32:24;;;;;;;15.85;9.93;;;;;;;;;;5027947;28;20408;-68
2023/02/23 01:34:50;;;;;;;14.43;9.83;;;;;;;;;;5028342;28;20071;-67
2023/02/23 01:37:15;;;;;;;19.03;9.10;;;;;;;;;;5027253;28;20284;-67
2023/02/23 01:39:40;;;;;;;16.43;10.77;;;;;;;;;;5027464;28;20284;-68
2023/02/23 01:42:12;;;;;;;16.07;9.33;;;;;;;;;;5027401;28;20966;-67
2023/02/23 01:44:38;;;;;;;16.70;9.13;;;;;;;;;;5024452;28;20072;-67
2023/02/23 01:47:04;;;;;;;18.45;10.10;;;;;;;;;;5029932;28;20065;-69
2023/02/23 01:49:29;;;;;;;15.35;9.38;;;;;;;;;;5026124;28;20463;-70
2023/02/23 01:52:03;;;;;;;18.25;9.38;;;;;;;;;;5014035;28;20593;-68
2023/02/23 01:54:40;;;;;;;15.13;9.50;;;;;;;;;;5039669;28;20043;-67
2023/02/23 01:57:06;;;;;;;16.08;9.07;;;;;;;;;;5026739;28;20514;-69
2023/02/23 01:59:42;;;;;;;17.45;9.65;;;;;;;;;;5028740;28;20045;-68
2023/02/23 02:02:07;;;;;;;15.30;9.93;;;;;;;;;;5027983;28;20084;-67
2023/02/23 02:04:43;;;;;;;15.80;9.67;;;;;;;;;;5031157;28;20459;-68
2023/02/23 02:07:18;;;;;;;15.85;8.68;;;;;;;;;;5027787;28;20296;-72
2023/02/23 02:10:38;;;;;;;15.48;10.02;;;;;;;;;;5025635;28;20072;-70
2023/02/23 02:12:29;;;;;;;16.08;9.70;;;;;;;;;;5028855;28;20033;-70
2023/02/23 02:14:55;;;;;;;15.15;9.50;;;;;;;;;;5027899;28;20516;-70
2023/02/23 02:17:39;;;;;;;14.80;9.40;;;;;;;;;;5025107;28;20599;-69
2023/02/23 02:20:11;;;;;;;20.52;10.35;;;;;;;;;;5026870;28;20072;-69
2023/02/23 02:22:55;;;;;;;14.18;9.73;;;;;;;;;;5028235;28;20457;-69
2023/02/23 02:25:35;;;;;;;17.60;10.55;;;;;;;;;;5031414;28;20026;-70
2023/02/23 02:28:09;;;;;;;19.45;10.80;;;;;;;;;;5027008;28;20037;-71
2023/02/23 02:30:52;;;;;;;14.82;9.88;;;;;;;;;;5028257;28;20143;-71
2023/02/23 02:33:20;;;;;;;19.15;10.77;;;;;;;;;;5021801;28;20037;-69
2023/02/23 02:35:55;;;;;;;17.63;11.25;;;;;;;;;;5021853;28;20030;-66
2023/02/23 02:38:30;;;;;;;16.92;9.70;;;;;;;;;;5027617;28;20017;-67
2023/02/23 02:41:00;;;;;;;18.77;9.75;;;;;;;;;;5023845;28;20300;-67
2023/02/23 02:43:31;;;;;;;18.50;11.00;;;;;;;;;;5030830;28;20056;-67
2023/02/23 02:46:02;;;;;;;17.42;10.30;;;;;;;;;;5030601;28;20041;-69
2023/02/23 02:48:46;;;;;;;19.92;10.90;;;;;;;;;;5027395;28;20064;-71
2023/02/23 02:51:30;;;;;;;17.83;11.50;;;;;;;;;;5031020;28;20033;-71
2023/02/23 02:54:10;;;;;;;14.93;9.80;;;;;;;;;;5030975;28;20056;-72
2023/02/23 02:56:39;;;;;;;16.48;11.05;;;;;;;;;;5033646;28;20205;-73
2023/02/23 04:18:04;;;;;;;22.58;11.38;;;;;;;;;;5010544;28;20080;-74
2023/02/23 04:20:29;;;;;;;16.83;10.63;;;;;;;;;;4992325;28;20021;-74
2023/02/23 04:22:54;;;;;;;14.67;10.70;;;;;;;;;;5005522;28;20072;-74
2023/02/23 04:25:21;;;;;;;15.85;10.30;;;;;;;;;;5010200;28;20347;-74
2023/02/23 04:27:47;;;;;;;19.35;11.25;;;;;;;;;;5008125;28;20062;-75
2023/02/23 04:30:12;;;;;;;18.30;10.80;;;;;;;;;;5010144;28;20030;-74
2023/02/23 04:32:38;;;;;;;14.65;10.05;;;;;;;;;;4992905;28;20056;-78
2023/02/23 04:35:03;;;;;;;15.00;9.07;;;;;;;;;;4995019;28;20034;-72
2023/02/23 04:37:28;;;;;;;20.15;9.98;;;;;;;;;;5010032;28;20550;-69
2023/02/23 04:39:53;;;;;;;21.53;9.90;;;;;;;;;;5009948;28;20030;-79
2023/02/23 04:42:19;;;;;;;15.02;9.70;;;;;;;;;;5005943;28;20277;-81
2023/02/23 04:44:44;;;;;;;20.13;9.27;;;;;;;;;;4990905;28;20694;-80
2023/02/23 04:47:10;;;;;;;16.65;9.18;;;;;;;;;;5009716;28;20791;-80
2023/02/23 04:49:36;;;;;;;15.05;10.07;;;;;;;;;;5000164;28;20494;-81
2023/02/23 04:52:01;;;;;;;19.95;10.43;;;;;;;;;;5007985;28;20069;-80
2023/02/23 04:54:27;;;;;;;14.70;9.50;;;;;;;;;;5006028;28;20717;-73
2023/02/23 04:56:52;;;;;;;15.75;9.07;;;;;;;;;;5009743;28;20037;-72
2023/02/23 04:59:18;;;;;;;15.35;9.80;;;;;;;;;;5003205;28;20038;-72
2023/02/23 05:01:43;;;;;;;14.73;9.00;;;;;;;;;;4983536;28;20092;-73
2023/02/23 05:04:08;;;;;;;17.10;9.47;;;;;;;;;;4985444;28;20053;-72
2023/02/23 05:06:33;;;;;;;21.13;10.80;;;;;;;;;;5016366;28;20444;-72
2023/02/23 05:08:59;;;;;;;15.50;8.90;;;;;;;;;;4981464;28;20030;-73
2023/02/23 05:11:25;;;;;;;16.52;10.57;;;;;;;;;;4984576;28;20041;-72
2023/02/23 05:13:50;;;;;;;13.75;8.70;;;;;;;;;;5001007;28;20092;-78
2023/02/23 05:16:17;;;;;;;17.88;10.05;;;;;;;;;;5005227;28;20058;-80
2023/02/23 05:18:42;;;;;;;15.80;9.23;;;;;;;;;;5001540;28;20043;-80
2023/02/23 05:21:09;;;;;;;15.52;9.02;;;;;;;;;;5005225;28;20108;-79
2023/02/23 05:23:34;;;;;;;17.02;9.20;;;;;;;;;;4989364;28;20058;-80
2023/02/23 05:26:05;;;;;;;14.30;9.23;;;;;;;;;;5005096;28;20060;-80
2023/02/23 05:28:31;;;;;;;18.45;10.18;;;;;;;;;;4989133;28;20442;-81
2023/02/23 05:30:56;;;;;;;15.10;8.30;;;;;;;;;;4981695;28;20079;-80
2023/02/23 05:33:21;;;;;;;15.43;8.13;;;;;;;;;;4984794;28;20511;-74
2023/02/23 05:35:47;;;;;;;16.47;8.87;;;;;;;;;;5008287;28;20477;-73
2023/02/23 05:38:12;;;;;;;13.45;8.38;;;;;;;;;;4999641;28;20259;-74
2023/02/23 05:40:38;;;;;;;16.93;8.83;;;;;;;;;;5005505;28;20030;-76
2023/02/23 05:43:04;;;;;;;16.33;7.82;;;;;;;;;;4985535;28;20449;-75
2023/02/23 05:45:29;;;;;;;15.55;7.32;;;;;;;;;;5006858;28;20025;-75
2023/02/23 05:47:54;;;;;;;14.03;8.60;;;;;;;;;;5005038;28;20018;-76
2023/02/23 05:50:19;;;;;;;16.00;8.07;;;;;;;;;;5000898;28;20275;-71
2023/02/23 05:52:44;;;;;;;17.08;8.95;;;;;;;;;;4985648;28;20295;-78
2023/02/23 05:55:10;;;;;;;17.20;8.47;;;;;;;;;;5005900;28;20033;-81
2023/02/23 05:57:36;;;;;;;11.18;7.13;;;;;;;;;;5004308;28;20771;-81
2023/02/23 06:00:02;;;;;;;17.80;7.93;;;;;;;;;;5006244;28;20038;-79
2023/02/23 06:02:28;;;;;;;16.23;8.13;;;;;;;;;;5003247;28;20061;-79
2023/02/23 06:04:54;;;;;;;16.00;9.43;;;;;;;;;;5005097;28;20492;-80
2023/02/23 06:07:19;;;;;;;12.88;7.93;;;;;;;;;;5008717;28;20288;-78
2023/02/23 06:09:45;;;;;;;16.47;9.37;;;;;;;;;;4999417;28;20030;-78
2023/02/23 06:12:13;;;;;;;17.27;7.43;;;;;;;;;;4990816;28;20287;-74
2023/02/23 06:14:38;;;;;;;15.07;9.32;;;;;;;;;;4986076;28;20477;-75
2023/02/23 06:17:04;;;;;;;22.05;9.20;;;;;;;;;;5003859;28;20041;-76
2023/02/23 06:19:30;;;;;;;16.70;8.35;;;;;;;;;;5004558;28;20107;-75
2023/02/23 06:21:56;;;;;;;13.70;8.35;;;;;;;;;;4998508;28;20056;-75
2023/02/23 06:24:22;;;;;;;14.70;8.27;;;;;;;;;;4987643;28;20037;-75
2023/02/23 06:26:47;;;;;;;18.55;9.00;;;;;;;;;;4987767;28;20569;-75
2023/02/23 06:29:13;;;;;;;11.77;7.37;;;;;;;;;;5008874;28;20041;-76
2023/02/23 06:31:38;;;;;;;12.52;7.68;;;;;;;;;;4984925;28;20952;-73
2023/02/23 06:34:03;;;;;;;13.10;7.50;;;;;;;;;;5010043;28;20476;-72
2023/02/23 06:36:29;;;;;;;16.30;8.95;;;;;;;;;;5013056;28;21729;-72
2023/02/23 06:38:55;;;;;;;13.63;8.25;;;;;;;;;;5004981;28;20023;-72
2023/02/23 06:41:20;;;;;;;14.55;8.23;;;;;;;;;;5015455;28;20301;-73
2023/02/23 06:43:45;;;;;;;14.40;7.60;;;;;;;;;;5010814;28;20026;-72
2023/02/23 06:46:10;;;;;;;14.70;7.77;;;;;;;;;;5008571;28;20346;-73
2023/02/23 06:48:36;;;;;;;19.83;8.30;;;;;;;;;;5003963;28;20277;-71
2023/02/23 06:51:02;;;;;;;18.48;9.13;;;;;;;;;;5014247;28;20273;-71
2023/02/23 06:53:27;;;;;;;16.27;8.60;;;;;;;;;;4989071;28;20030;-72
2023/02/23 06:55:52;;;;;;;15.23;8.35;;;;;;;;;;5009434;28;20036;-73
2023/02/23 06:58:18;;;;;;;12.48;7.50;;;;;;;;;;5009245;28;20022;-69
2023/02/23 07:00:43;;;;;;;17.20;8.32;;;;;;;;;;5006585;28;20453;-70
2023/02/23 07:03:09;;;;;;;13.32;8.75;;;;;;;;;;5011546;28;20049;-70
2023/02/23 07:05:35;;;;;;;14.85;8.40;;;;;;;;;;5009881;28;20060;-72
2023/02/23 07:08:00;;;;;;;13.00;7.20;;;;;;;;;;5012832;28;20026;-70
2023/02/23 07:10:25;;;;;;;13.20;8.33;;;;;;;;;;5011216;28;20041;-71
2023/02/23 07:12:52;;;;;;;14.27;7.53;;;;;;;;;;5015881;28;20284;-71
2023/02/23 07:15:19;;;;;;;14.57;8.00;;;;;;;;;;5014296;28;20265;-73
2023/02/23 07:17:47;;;;;;;15.10;7.38;;;;;;;;;;4993288;28;20160;-71
2023/02/23 07:20:12;;;;;;;14.10;8.65;;;;;;;;;;5011056;28;20385;-73
2023/02/23 07:22:37;;;;;;;14.68;8.02;;;;;;;;;;5010428;28;20026;-78
2023/02/23 07:25:04;;;;;;;14.27;8.37;;;;;;;;;;5010691;28;20033;-77
2023/02/23 07:27:29;;;;;;;14.15;8.48;;;;;;;;;;5010372;28;20392;-77
2023/02/23 07:29:54;;;;;;;14.03;8.83;;;;;;;;;;4990364;28;20058;-74
2023/02/23 07:32:20;;;;;;;16.48;8.30;;;;;;;;;;4990843;28;20743;-75
2023/02/23 07:34:46;;;;;;;15.02;8.35;;;;;;;;;;5010841;28;20036;-73
2023/02/23 07:37:12;;;;;;;14.68;8.52;;;;;;;;;;5002261;28;20173;-76
2023/02/23 07:39:37;;;;;;;13.35;8.38;;;;;;;;;;5005362;28;20116;-74
2023/02/23 07:42:02;;;;;;;13.87;8.23;;;;;;;;;;4992748;28;20037;-80
2023/02/23 07:44:28;;;;;;;20.33;8.68;;;;;;;;;;4993179;28;20336;-74
2023/02/23 07:46:53;;;;;;;16.07;8.57;;;;;;;;;;5015744;28;20045;-73
2023/02/23 07:49:18;;;;;;;16.93;9.70;;;;;;;;;;5004672;28;20266;-73
2023/02/23 07:51:44;;;;;;;16.27;9.67;;;;;;;;;;5009575;28;20743;-74
2023/02/23 07:54:09;;;;;;;18.45;8.60;;;;;;;;;;4991501;28;20702;-76
2023/02/23 07:56:34;;;;;;;14.43;8.67;;;;;;;;;;5006255;28;20084;-74
2023/02/23 07:58:59;;;;;;;15.10;9.07;;;;;;;;;;5010481;28;20307;-74
2023/02/23 08:01:25;;;;;;;15.85;8.50;;;;;;;;;;4992792;28;20272;-71
2023/02/23 08:03:50;;;;;;;16.53;9.13;;;;;;;;;;5007755;28;20033;-69
2023/02/23 08:06:16;;;;;;;13.50;8.30;;;;;;;;;;5010283;28;20021;-71
2023/02/23 08:08:41;;;;;;;15.55;9.07;;;;;;;;;;5008036;28;20284;-69
2023/02/23 08:11:06;;;;;;;15.57;8.67;;;;;;;;;;4992111;28;20029;-68
2023/02/23 08:13:32;;;;;;;14.53;8.80;;;;;;;;;;5008181;28;20277;-71
2023/02/23 08:15:58;;;;;;;13.18;8.32;;;;;;;;;;4992495;28;20284;-75
2023/02/23 08:18:23;;;;;;;14.18;9.88;;;;;;;;;;5016585;28;20025;-78
2023/02/23 08:20:48;;;;;;;14.77;7.93;;;;;;;;;;5009257;28;20060;-74
2023/02/23 08:23:15;;;;;;;13.43;8.32;;;;;;;;;;5008690;28;20182;-73
2023/02/23 08:25:41;;;;;;;15.73;8.63;;;;;;;;;;5007264;28;20022;-72
2023/02/23 08:28:06;;;;;;;16.53;7.73;;;;;;;;;;4990463;28;20766;-74
2023/02/23 08:30:31;;;;;;;15.43;9.38;;;;;;;;;;4990781;28;20867;-75
2023/02/23 08:32:57;;;;;;;17.40;8.18;;;;;;;;;;4987773;28;20032;-72
2023/02/23 08:35:22;;;;;;;17.25;8.98;;;;;;;;;;5008899;28;20026;-74
2023/02/23 08:37:47;;;;;;;14.02;7.55;;;;;;;;;;4991166;28;20030;-72
2023/02/23 08:40:14;;;;;;;15.13;8.43;;;;;;;;;;5007404;28;20447;-72
2023/02/23 08:42:40;;;;;;;14.60;7.65;;;;;;;;;;4990000;28;20752;-73
2023/02/23 08:45:05;;;;;;;20.25;9.18;;;;;;;;;;5007505;28;20037;-72
2023/02/23 08:47:33;;;;;;;14.60;7.68;;;;;;;;;;5007289;28;20037;-74
2023/02/23 08:49:58;;;;;;;13.70;7.68;;;;;;;;;;4999218;28;20248;-72
2023/02/23 08:52:24;;;;;;;12.20;6.85;;;;;;;;;;4990625;28;20033;-74
2023/02/23 08:54:49;;;;;;;21.63;8.13;;;;;;;;;;4991529;28;20025;-72
2023/02/23 08:57:14;;;;;;;14.68;7.75;;;;;;;;;;4991153;28;20057;-71
2023/02/23 08:59:40;;;;;;;16.60;7.97;;;;;;;;;;5006955;28;20405;-71
2023/02/23 09:02:07;;;;;;;14.48;7.97;;;;;;;;;;5008391;28;20265;-71
2023/02/23 09:04:34;;;;;;;15.43;7.13;;;;;;;;;;5008097;28;20029;-71
2023/02/23 09:06:59;;;;;;;15.05;7.68;;;;;;;;;;5008176;28;20084;-71
2023/02/23 09:09:24;;;;;;;13.90;7.60;;;;;;;;;;5008180;28;20034;-70
2023/02/23 09:11:49;;;;;;;18.50;6.80;;;;;;;;;;4988316;28;20034;-76
2023/02/23 09:14:15;;;;;;;15.50;8.00;;;;;;;;;;4989520;28;20346;-78
2023/02/23 09:16:40;;;;;;;12.63;7.85;;;;;;;;;;4985378;28;20349;-77
2023/02/23 09:19:05;;;;;;;17.05;8.80;;;;;;;;;;4989607;28;20493;-79
2023/02/23 09:21:33;;;;;;;14.07;7.57;;;;;;;;;;5014576;28;20029;-70
2023/02/23 09:24:01;;;;;;;16.15;7.80;;;;;;;;;;4988855;28;20117;-75
2023/02/23 09:26:28;;;;;;;15.93;6.80;;;;;;;;;;4988484;28;20857;-75
2023/02/23 09:28:53;;;;;;;11.80;6.80;;;;;;;;;;5003921;28;20029;-74
2023/02/23 09:31:19;;;;;;;12.60;6.07;;;;;;;;;;4987250;28;20075;-75
2023/02/23 09:33:45;;;;;;;16.50;6.70;;;;;;;;;;4989855;28;20037;-77
2023/02/23 09:36:18;;;;;;;11.73;6.53;;;;;;;;;;4989895;28;20025;-74
2023/02/23 09:38:44;;;;;;;13.60;5.65;;;;;;;;;;4989738;28;20026;-73
2023/02/23 09:41:25;;;;;;;15.70;5.30;;;;;;;;;;5006601;28;20508;-73
2023/02/23 09:43:56;;;;;;;8.95;5.15;;;;;;;;;;5005952;28;20038;-73
2023/02/23 09:46:35;;;;;;;11.07;5.28;;;;;;;;;;4985298;28;20070;-75
2023/02/23 09:49:01;;;;;;;11.82;5.10;;;;;;;;;;4989502;28;20100;-74
2023/02/23 09:51:29;;;;;;;13.45;4.70;;;;;;;;;;5008530;28;20030;-78
2023/02/23 09:53:56;;;;;;;13.68;6.00;;;;;;;;;;5013187;28;20208;-82
2023/02/23 09:56:34;;;;;;;11.90;4.43;;;;;;;;;;5007263;28;20034;-81
2023/02/23 09:59:00;;;;;;;12.10;5.60;;;;;;;;;;4981358;28;20022;-78
2023/02/23 10:01:45;;;;;;;12.55;4.13;;;;;;;;;;4987656;28;20030;-76
2023/02/23 10:04:29;;;;;;;10.20;4.70;;;;;;;;;;5007110;28;20038;-76
2023/02/23 10:07:03;;;;;;;9.75;4.03;;;;;;;;;;5008591;28;20476;-76
2023/02/23 10:09:31;;;;;;;6.90;3.78;;;;;;;;;;5012242;28;20515;-78
2023/02/23 10:12:02;;;;;;;10.63;3.97;;;;;;;;;;5010612;28;20517;-78
2023/02/23 10:14:46;;;;;;;17.05;4.78;;;;;;;;;;5012007;28;20045;-78
2023/02/23 10:17:30;;;;;;;10.55;3.92;;;;;;;;;;5011347;28;20339;-74
2023/02/23 10:19:59;;;;;;;8.18;3.67;;;;;;;;;;4991078;28;20109;-75
2023/02/23 10:22:25;;;;;;;9.80;4.27;;;;;;;;;;4993338;28;20042;-74
2023/02/23 10:25:03;;;;;;;8.20;3.78;;;;;;;;;;4993321;28;20034;-70
2023/02/23 10:27:34;;;;;;;8.80;3.60;;;;;;;;;;5012292;28;20037;-71
2023/02/23 10:30:01;;;;;;;7.68;3.53;;;;;;;;;;5009548;28;20379;-75
2023/02/23 10:32:41;;;;;;;12.27;4.72;;;;;;;;;;4992135;28;20025;-76
2023/02/23 10:35:13;;;;;;;9.85;4.65;;;;;;;;;;5005525;28;20061;-74
2023/02/23 10:37:38;;;;;;;11.07;4.35;;;;;;;;;;4994215;28;20044;-79
2023/02/23 10:40:04;;;;;;;6.17;3.33;;;;;;;;;;5008351;28;20480;-78
2023/02/23 10:42:30;;;;;;;9.30;3.65;;;;;;;;;;5011033;28;20783;-76
2023/02/23 10:44:56;;;;;;;10.23;3.33;;;;;;;;;;5010734;28;20476;-74
2023/02/23 10:47:25;;;;;;;9.20;2.67;;;;;;;;;;4985637;28;20091;-77
2023/02/23 10:49:52;;;;;;;8.50;2.97;;;;;;;;;;4990099;28;20033;-78
2023/02/23 10:52:19;;;;;;;8.98;2.67;;;;;;;;;;5008224;28;20022;-73
2023/02/23 10:54:46;;;;;;;8.45;2.88;;;;;;;;;;4992375;28;20112;-80
2023/02/23 10:57:17;;;;;;;7.20;3.33;;;;;;;;;;5002301;28;20044;-82
2023/02/23 10:59:56;;;;;;;9.05;3.47;;;;;;;;;;5013055;28;20005;-85
2023/02/23 11:02:24;;;;;;;5.82;3.20;;;;;;;;;;5010250;28;20031;-71
2023/02/23 11:04:51;;;;;;;12.57;3.30;;;;;;;;;;5004479;28;20389;-75
2023/02/23 11:07:19;;;;;;;7.07;3.03;;;;;;;;;;4992853;28;20037;-77
2023/02/23 11:09:45;;;;;;;8.25;2.75;;;;;;;;;;5010460;28;20217;-76
2023/02/23 11:12:21;;;;;;;5.33;2.17;;;;;;;;;;5010348;28;20029;-77
2023/02/23 11:14:47;;;;;;;8.70;2.92;;;;;;;;;;4992260;28;20811;-74
2023/02/23 11:17:26;;;;;;;7.32;2.65;;;;;;;;;;5002325;28;20157;-78
2023/02/23 11:19:57;;;;;;;5.57;2.42;;;;;;;;;;4999210;28;20037;-68
2023/02/23 11:22:22;;;;;;;10.75;2.80;;;;;;;;;;4992196;28;20026;-75
2023/02/23 11:24:48;;;;;;;6.45;3.17;;;;;;;;;;5010294;28;20037;-71
2023/02/23 11:27:32;;;;;;;15.25;2.88;;;;;;;;;;4991187;28;20033;-70
2023/02/23 11:29:58;;;;;;;13.98;5.05;;;;;;;;;;4997130;28;20032;-71
2023/02/23 11:32:29;;;;;;;8.73;3.40;;;;;;;;;;5002697;28;20441;-70
2023/02/23 11:35:10;;;;;;;10.57;3.30;;;;;;;;;;5007161;28;20034;-72
2023/02/23 11:37:36;;;;;;;8.15;3.50;;;;;;;;;;4989388;28;20132;-73
2023/02/23 11:40:16;;;;;;;5.85;2.45;;;;;;;;;;5010353;28;20113;-70
2023/02/23 11:42:49;;;;;;;9.98;4.00;;;;;;;;;;5009310;28;20477;-78
2023/02/23 11:45:15;;;;;;;12.57;6.00;;;;;;;;;;5003807;28;20022;-77
2023/02/23 11:47:44;;;;;;;12.45;6.75;;;;;;;;;;4986919;28;20688;-76
2023/02/23 11:50:20;;;;;;;15.27;7.28;;;;;;;;;;5010031;28;20084;-76
2023/02/23 11:52:48;;;;;;;15.60;6.55;;;;;;;;;;5008619;28;20014;-79
2023/02/23 11:55:15;;;;;;;14.82;5.80;;;;;;;;;;5005777;28;20056;-75
2023/02/23 11:57:41;;;;;;;10.30;5.30;;;;;;;;;;4991185;28;20145;-76
2023/02/23 12:00:11;;;;;;;12.30;6.20;;;;;;;;;;5007636;28;20042;-69
2023/02/23 12:02:45;;;;;;;12.07;6.00;;;;;;;;;;5011150;28;20052;-68
2023/02/23 12:05:20;;;;;;;15.10;6.15;;;;;;;;;;4989277;28;20049;-68
2023/02/23 12:08:08;;;;;;;17.13;6.78;;;;;;;;;;4990101;28;20040;-72
2023/02/23 12:10:37;;;;;;;15.88;6.95;;;;;;;;;;4992379;28;20033;-72
2023/02/23 12:13:03;;;;;;;15.03;7.33;;;;;;;;;;4977689;28;20282;-69
2023/02/23 12:15:40;;;;;;;15.55;6.78;;;;;;;;;;4984852;28;20481;-77
2023/02/23 12:18:10;;;;;;;14.35;7.47;;;;;;;;;;4997408;28;20029;-70
2023/02/23 12:20:38;;;;;;;11.85;5.50;;;;;;;;;;5006061;28;20034;-70
2023/02/23 12:23:07;;;;;;;13.48;5.75;;;;;;;;;;4987730;28;20084;-69
2023/02/23 12:25:35;;;;;;;12.02;5.45;;;;;;;;;;5008993;28;20038;-69
2023/02/23 12:28:09;;;;;;;12.68;5.38;;;;;;;;;;4989136;28;20118;-68
2023/02/23 12:30:34;;;;;;;12.82;5.63;;;;;;;;;;4982876;28;20025;-72
2023/02/23 12:33:19;;;;;;;12.00;4.83;;;;;;;;;;5014143;28;20045;-69
2023/02/23 12:35:56;;;;;;;17.23;5.10;;;;;;;;;;4987199;28;20115;-69
2023/02/23 12:38:40;;;;;;;8.35;4.35;;;;;;;;;;4991051;28;20026;-75
2023/02/23 12:41:10;;;;;;;19.30;5.45;;;;;;;;;;4982132;28;20034;-74
2023/02/23 12:43:35;;;;;;;11.98;5.10;;;;;;;;;;5005127;28;20102;-74
2023/02/23 12:46:03;;;;;;;10.87;5.30;;;;;;;;;;5007310;28;20646;-74
2023/02/23 12:48:34;;;;;;;11.15;5.10;;;;;;;;;;4989597;28;20315;-78
2023/02/23 12:51:00;;;;;;;11.02;5.00;;;;;;;;;;5007723;28;20026;-76
2023/02/23 12:53:52;;;;;;;10.43;5.78;;;;;;;;;;5008157;28;20029;-75
2023/02/23 12:56:26;;;;;;;11.77;6.80;;;;;;;;;;5001613;28;20057;-74
2023/02/23 12:58:58;;;;;;;11.18;4.85;;;;;;;;;;5007034;28;20217;-71
2023/02/23 13:01:24;;;;;;;9.07;4.65;;;;;;;;;;5005335;28;20034;-72
2023/02/23 13:03:53;;;;;;;12.07;5.22;;;;;;;;;;4989774;28;20033;-71
2023/02/23 13:06:24;;;;;;;8.98;4.68;;;;;;;;;;5013251;28;20848;-72
2023/02/23 13:09:08;;;;;;;8.75;3.78;;;;;;;;;;4990253;28;20038;-74
2023/02/23 13:11:52;;;;;;;9.10;3.70;;;;;;;;;;4990286;28;20026;-73
2023/02/23 13:14:28;;;;;;;10.90;4.50;;;;;;;;;;5005128;28;20033;-68
2023/02/23 13:16:56;;;;;;;6.93;4.10;;;;;;;;;;5006945;28;20030;-70
2023/02/23 13:19:25;;;;;;;8.27;4.43;;;;;;;;;;4989898;28;20030;-71
2023/02/23 13:22:00;;;;;;;10.73;3.77;;;;;;;;;;4990085;28;20033;-71
2023/02/23 13:24:28;;;;;;;10.95;3.95;;;;;;;;;;5005150;28;20308;-68
2023/02/23 13:26:56;;;;;;;16.00;4.93;;;;;;;;;;4987468;28;20034;-70
2023/02/23 13:29:22;;;;;;;8.48;4.40;;;;;;;;;;5007415;28;20072;-73
2023/02/23 13:31:50;;;;;;;14.13;4.72;;;;;;;;;;4975268;28;20117;-76
2023/02/23 13:34:20;;;;;;;9.70;3.88;;;;;;;;;;4989495;28;20113;-79
2023/02/23 13:36:45;;;;;;;9.88;3.50;;;;;;;;;;5011654;28;20064;-79
2023/02/23 13:39:15;;;;;;;10.52;4.40;;;;;;;;;;5010852;28;20397;-75
2023/02/23 13:41:59;;;;;;;8.70;4.47;;;;;;;;;;5006382;28;20083;-74
2023/02/23 13:44:28;;;;;;;11.38;4.50;;;;;;;;;;5008177;28;20026;-74
2023/02/23 13:46:58;;;;;;;11.98;4.43;;;;;;;;;;5007076;28;20307;-79
2023/02/23 13:49:27;;;;;;;13.85;4.65;;;;;;;;;;4994916;28;20610;-73
2023/02/23 13:51:57;;;;;;;9.63;5.05;;;;;;;;;;5007582;28;20109;-74
2023/02/23 13:54:29;;;;;;;10.10;4.22;;;;;;;;;;4992905;28;20030;-73
2023/02/23 13:56:55;;;;;;;7.20;4.38;;;;;;;;;;5008483;28;20033;-75
2023/02/23 13:59:35;;;;;;;11.88;5.22;;;;;;;;;;4988407;28;20605;-77
2023/02/23 14:02:05;;;;;;;11.23;5.05;;;;;;;;;;4986328;28;20034;-77
2023/02/23 14:04:30;;;;;;;;;;;;;;;;;;5007774;28;20033;-75
2023/02/23 14:07:07;;;;;;;9.45;4.95;;;;;;;;;;4991370;28;19917;-82
2023/02/23 14:09:35;;;;;;;10.57;5.72;;;;;;;;;;4992166;28;20057;-82
2023/02/23 14:12:15;;;;;;;7.93;4.60;;;;;;;;;;4992656;28;20259;-81
2023/02/23 14:14:41;;;;;;;12.05;5.22;;;;;;;;;;5011438;28;20069;-83
2023/02/23 14:17:09;;;;;;;10.15;5.13;;;;;;;;;;5010656;28;20022;-81
2023/02/23 14:19:36;;;;;;;10.70;5.05;;;;;;;;;;5010905;28;20120;-85
2023/02/23 14:22:04;;;;;;;9.75;4.47;;;;;;;;;;4979950;28;20034;-83
2023/02/23 14:24:29;;;;;;;9.23;5.45;;;;;;;;;;4993133;28;20022;-82
2023/02/23 14:27:07;;;;;;;10.38;4.82;;;;;;;;;;4995117;28;20455;-74
2023/02/23 14:29:39;;;;;;;10.65;5.57;;;;;;;;;;4991649;28;20132;-74
2023/02/23 14:32:13;;;;;;;9.43;4.18;;;;;;;;;;4991380;28;20044;-75
2023/02/23 14:34:44;;;;;;;9.00;4.15;;;;;;;;;;5007891;28;20112;-71
2023/02/23 14:37:24;;;;;;;11.95;6.35;;;;;;;;;;5010335;28;20036;-74
2023/02/23 14:39:50;;;;;;;6.80;3.83;;;;;;;;;;4994039;28;20076;-73
2023/02/23 14:42:19;;;;;;;11.73;3.90;;;;;;;;;;4988783;28;20034;-82
2023/02/23 14:44:50;;;;;;;7.80;3.60;;;;;;;;;;5009931;28;20598;-78
2023/02/23 14:47:17;;;;;;;8.68;3.63;;;;;;;;;;4992040;28;20195;-75
2023/02/23 14:49:43;;;;;;;10.20;3.72;;;;;;;;;;4992005;28;20022;-75
2023/02/23 14:52:13;;;;;;;8.57;3.70;;;;;;;;;;4993025;28;20030;-74
2023/02/23 14:54:38;;;;;;;;;;;;;;;;;;4990592;28;20022;-74
2023/02/23 14:57:05;;;;;;;8.07;3.08;;;;;;;;;;4991857;28;19913;-73
2023/02/23 14:59:38;;;;;;;8.43;3.90;;;;;;;;;;5011502;28;20041;-74
2023/02/23 15:02:17;;;;;;;9.32;3.15;;;;;;;;;;5004047;28;20109;-73
2023/02/23 15:04:43;;;;;;;11.25;3.92;;;;;;;;;;4993039;28;20555;-70
2023/02/23 15:07:15;;;;;;;9.23;3.15;;;;;;;;;;4992004;28;20046;-69
2023/02/23 15:09:41;;;;;;;6.20;2.67;;;;;;;;;;5008271;28;20103;-69
2023/02/23 15:12:27;;;;;;;7.10;3.17;;;;;;;;;;4994852;28;20066;-69
2023/02/23 15:14:55;;;;;;;11.90;3.10;;;;;;;;;;5012147;28;20061;-70
2023/02/23 15:17:22;;;;;;;8.02;3.35;;;;;;;;;;4990205;28;20104;-69
2023/02/23 15:19:49;;;;;;;8.18;3.08;;;;;;;;;;5009805;28;20034;-72
2023/02/23 15:22:28;;;;;;;4.75;2.33;;;;;;;;;;5010832;28;20045;-74
2023/02/23 15:24:55;;;;;;;5.80;3.10;;;;;;;;;;5010566;28;20041;-76
2023/02/23 15:27:22;;;;;;;7.00;2.97;;;;;;;;;;5009384;28;20038;-75
2023/02/23 15:29:47;;;;;;;8.07;3.22;;;;;;;;;;5006886;28;20033;-76
2023/02/23 15:32:17;;;;;;;6.75;2.63;;;;;;;;;;4993324;28;20427;-79
2023/02/23 15:34:42;;;;;;;;;;;;;;;;;;5008804;28;20101;-76
2023/02/23 15:37:29;;;;;;;9.77;3.15;;;;;;;;;;5010977;28;19913;-73
2023/02/23 15:39:55;;;;;;;12.05;3.65;;;;;;;;;;5010443;28;20034;-70
2023/02/23 15:42:23;;;;;;;10.38;3.30;;;;;;;;;;5008790;28;20109;-72
2023/02/23 15:44:56;;;;;;;11.95;5.55;;;;;;;;;;5016628;28;20400;-71
2023/02/23 15:47:27;;;;;;;7.00;3.63;;;;;;;;;;5012212;28;20030;-73
2023/02/23 15:49:58;;;;;;;14.35;4.97;;;;;;;;;;5010716;28;20029;-76
2023/02/23 15:52:24;;;;;;;9.45;3.90;;;;;;;;;;5010836;28;20100;-73
2023/02/23 15:54:51;;;;;;;9.77;4.05;;;;;;;;;;5010919;28;20117;-78
2023/02/23 15:57:18;;;;;;;10.60;5.18;;;;;;;;;;5009394;28;20029;-74
2023/02/23 15:59:44;;;;;;;11.60;4.65;;;;;;;;;;5002564;28;20049;-74
2023/02/23 16:02:19;;;;;;;10.00;4.47;;;;;;;;;;5010225;28;20036;-72